Latest Weather Observations for Bankstown

IDN60801

Issued at 8:52 pm EST Wednesday 19 September 2018 (issued every 10 minutes, with the page automatically refreshed every 10 minutes)

About weather observations | Map of weather stations | Latest weather observations for NSW | Other Formats
Station Details ID: 066137 Name: BANKSTOWN AIRPORT AWS Lat: -33.92 Lon: 150.99 Height: 6.5 m
Data from the previous 72 hours. | See also: Recent months at Bankstown
Date/Time
EST
Temp
°C
App
Temp
°C
Dew
Point
°C
Rel
Hum
%
Delta-T
°C
Wind Press
QNH
hPa
Press
MSL
hPa
Rain since
9am
mm
Dir  Spd
km/h
Gust
km/h
Spd
kts
Gust
kts
19/08:30pm 16.5 10.2 -3.6 25 8.0 SSW 20 30 11 16 1013.4 1013.4 0.0
19/08:00pm 17.3 10.8 -2.4 26 8.1 S 22 35 12 19 1013.1 1013.1 0.0
19/07:30pm 18.2 12.0 -0.6 28 8.1 SSW 22 28 12 15 1012.4 1012.4 0.0
19/07:00pm 19.7 14.3 -1.4 24 9.0 SW 17 28 9 15 1011.5 1011.5 0.0
19/06:30pm 20.6 14.7 -2.5 21 9.8 WSW 19 28 10 15 1010.6 1010.6 0.0
19/06:00pm 21.1 16.5 -0.8 23 9.6 WNW 13 22 7 12 1009.8 1009.8 0.0
19/05:30pm 22.9 17.1 -1.2 20 10.7 W 19 33 10 18 1009.1 1009.1 0.0
19/05:00pm 24.0 16.1 -1.8 18 11.4 W 30 41 16 22 1008.4 1008.4 0.0
19/04:30pm 25.0 17.6 -0.9 18 11.7 WNW 28 44 15 24 1007.7 1007.7 0.0
19/04:00pm 25.6 16.7 -2.1 16 12.3 WNW 35 54 19 29 1007.1 1007.1 0.0
19/03:35pm 26.6 17.1 -4.0 13 13.2 WNW 37 56 20 30 1006.7 1006.7 0.0
19/03:30pm 26.6 16.7 -4.0 13 13.2 NW 39 52 21 28 1006.6 1006.6 0.0
19/03:00pm 27.2 16.7 -5.8 11 13.9 WNW 41 61 22 33 1006.5 1006.5 0.0
19/02:30pm 28.3 19.1 -4.9 11 14.3 WNW 35 54 19 29 1006.1 1006.1 0.0
19/02:04pm 29.1 20.2 -5.6 10 14.9 WNW 33 56 18 30 1005.9 1005.9 0.0
19/02:00pm 29.0 20.0 -5.7 10 14.9 WNW 33 46 18 25 1005.9 1005.9 0.0
19/01:33pm 28.0 19.3 -5.2 11 14.2 WNW 32 50 17 27 1005.7 1005.7 0.0
19/01:30pm 28.6 19.9 -4.7 11 14.5 WNW 32 48 17 26 1005.7 1005.7 0.0
19/01:00pm 27.7 18.7 -6.6 10 14.3 NW 33 57 18 31 1005.8 1005.8 0.0
19/12:30pm 28.9 20.4 -3.3 12 14.4 NW 32 52 17 28 1006.0 1006.0 0.0
19/12:14pm 28.5 20.3 -3.6 12 14.2 NNW 30 54 16 29 1006.1 1006.1 0.0
19/12:00pm 28.7 21.3 -0.5 15 13.7 NNW 28 44 15 24 1006.4 1006.4 0.0
19/11:30am 27.0 20.6 -1.8 15 13.0 NNW 22 37 12 20 1007.1 1007.1 0.0
19/11:00am 26.1 21.6 2.1 21 11.6 N 15 20 8 11 1007.4 1007.4 0.0
19/10:30am 24.7 20.0 3.4 25 10.4 N 17 24 9 13 1008.1 1008.1 0.0
19/10:00am 22.9 20.0 6.6 35 8.4 N 11 17 6 9 1009.0 1009.0 0.0
19/09:30am 19.6 17.7 7.7 46 6.1 N 7 11 4 6 1009.2 1009.2 0.0
19/09:00am 18.8 16.5 7.3 47 5.8 WNW 9 13 5 7 1010.0 1010.0 0.0
19/08:30am 17.0 14.3 7.4 53 4.8 W 11 17 6 9 1010.4 1010.4 0.0
19/08:00am 15.3 13.5 8.1 62 3.6 WSW 7 11 4 6 1010.5 1010.5 0.0
19/07:30am 11.8 11.0 8.3 79 1.7 SW 2 6 1 3 1010.3 1010.3 0.0
19/07:00am 11.4 11.0 8.3 81 1.5 CALM 0 0 0 0 1009.4 1009.4 0.0
19/06:30am 9.1 8.4 7.1 87 0.9 CALM 0 0 0 0 1009.7 1009.7 0.0
19/06:00am 7.1 5.0 5.9 92 0.5 WSW 6 9 3 5 1009.5 1009.5 0.0
19/05:30am 8.0 6.9 5.3 83 1.2 CALM 0 0 0 0 1009.4 1009.4 0.0
19/05:00am 9.2 8.6 7.3 88 0.9 CALM 0 0 0 0 1009.6 1009.6 0.0
19/04:30am 8.9 8.3 7.5 91 0.7 CALM 0 0 0 0 1009.4 1009.4 0.0
19/04:00am 8.3 7.5 6.3 87 0.9 CALM 0 0 0 0 1009.2 1009.2 0.0
19/03:30am 9.4 8.6 6.7 83 1.3 CALM 0 4 0 2 1009.1 1009.1 0.0
19/03:00am 10.2 9.5 6.9 80 1.6 CALM 0 0 0 0 1009.5 1009.5 0.0
19/02:30am 11.4 10.9 7.9 79 1.7 CALM 0 0 0 0 1009.9 1009.9 0.0
19/02:00am 10.1 9.5 7.5 84 1.2 CALM 0 0 0 0 1010.3 1010.3 0.0
19/01:30am 11.8 11.4 8.1 78 1.8 CALM 0 0 0 0 1010.5 1010.5 0.0
19/01:00am 11.0 10.5 7.9 81 1.5 CALM 0 0 0 0 1011.0 1011.0 0.0
19/12:30am 12.1 11.8 8.6 79 1.7 CALM 0 0 0 0 1011.3 1011.3 0.0
19/12:00am 11.6 11.0 7.5 76 2.0 CALM 0 0 0 0 1011.5 1011.5 0.0
 
Date/Time
EST
Temp
°C
App
Temp
°C
Dew
Point
°C
Rel
Hum
%
Delta-T
°C
Wind Press
QNH
hPa
Press
MSL
hPa
Rain since
9am
mm
Dir  Spd
km/h
Gust
km/h
Spd
kts
Gust
kts
18/11:30pm 12.0 11.3 8.5 79 1.7 W 2 6 1 3 1011.7 1011.7 0.0
18/11:00pm 12.7 11.9 8.2 74 2.2 NNE 2 6 1 3 1011.9 1011.9 0.0
18/10:30pm 12.9 12.4 8.0 72 2.4 CALM 0 0 0 0 1012.6 1012.6 0.0
18/10:00pm 13.7 12.9 8.1 69 2.8 WSW 2 6 1 3 1012.8 1012.8 0.0
18/09:30pm 14.4 12.6 7.2 62 3.5 NW 6 7 3 4 1013.0 1013.0 0.0
18/09:00pm 17.3 15.3 7.1 51 5.1 N 7 11 4 6 1012.9 1012.9 0.0
18/08:30pm 17.7 15.7 7.2 50 5.3 NNW 7 13 4 7 1013.0 1013.0 0.0
18/08:00pm 18.7 16.0 7.5 48 5.7 NNE 11 17 6 9 1013.1 1013.1 0.0
18/07:30pm 19.1 15.4 8.1 49 5.7 NE 17 22 9 12 1012.9 1012.9 0.0
18/07:00pm 19.4 15.4 8.4 49 5.7 NE 19 26 10 14 1012.5 1012.5 0.0
18/06:30pm 19.5 15.7 9.1 51 5.5 NE 19 24 10 13 1012.4 1012.4 0.0
18/06:00pm 20.0 16.1 9.6 51 5.5 ENE 20 28 11 15 1012.2 1012.2 0.0
18/05:30pm 20.8 17.1 10.3 51 5.7 ENE 20 30 11 16 1011.8 1011.8 0.0
18/05:00pm 21.8 17.8 10.3 48 6.3 ENE 22 32 12 17 1011.6 1011.6 0.0
18/04:30pm 22.5 18.8 10.0 45 6.8 E 20 33 11 18 1011.6 1011.6 0.0
18/04:00pm 23.0 18.6 9.0 41 7.5 E 22 28 12 15 1011.5 1011.5 0.0
18/03:30pm 23.6 18.9 7.7 36 8.3 E 22 30 12 16 1011.9 1011.9 0.0
18/03:00pm 25.1 21.3 7.7 33 9.2 N 17 24 9 13 1012.1 1012.1 0.0
18/02:30pm 26.1 21.7 2.7 22 11.4 NNW 15 28 8 15 1012.5 1012.5 0.0
18/02:00pm 25.7 23.0 2.4 22 11.3 NW 6 13 3 7 1013.1 1013.1 0.0
18/01:30pm 24.5 21.2 2.6 24 10.5 E 9 15 5 8 1013.7 1013.7 0.0
18/01:00pm 24.0 20.7 2.2 24 10.4 NW 9 17 5 9 1014.4 1014.4 0.0
18/12:30pm 23.9 20.8 3.8 27 9.8 NNW 9 17 5 9 1015.1 1015.1 0.0
18/12:00pm 23.0 19.9 3.5 28 9.4 N 9 13 5 7 1016.0 1016.0 0.0
18/11:30am 22.5 18.7 4.1 30 9.0 NNW 13 19 7 10 1016.9 1016.9 0.0
18/11:00am 21.1 17.8 4.6 34 8.0 NNW 11 20 6 11 1017.6 1017.6 0.0
18/10:30am 20.2 17.4 5.1 37 7.4 N 9 19 5 10 1018.2 1018.2 0.0
18/10:00am 18.9 16.0 6.4 44 6.2 NNW 11 19 6 10 1018.8 1018.8 0.0
18/09:30am 16.5 14.1 7.2 54 4.6 N 9 15 5 8 1019.5 1019.5 0.0
18/09:00am 14.7 12.9 7.0 60 3.8 N 6 11 3 6 1020.1 1020.1 0.0
18/08:30am 12.9 10.6 7.4 69 2.7 NNW 9 13 5 7 1020.4 1020.4 0.0
18/08:00am 11.7 9.3 7.2 74 2.2 WNW 9 13 5 7 1020.5 1020.5 0.0
18/07:30am 9.8 9.1 6.9 82 1.4 CALM 0 0 0 0 1020.2 1020.2 0.0
18/07:00am 8.1 7.3 6.7 91 0.6 CALM 0 0 0 0 1020.1 1020.1 0.0
18/06:30am 6.4 5.4 5.7 95 0.3 CALM 0 0 0 0 1020.2 1020.2 0.0
18/06:00am 4.8 3.4 3.6 92 0.5 CALM 0 0 0 0 1020.2 1020.2 0.0
18/05:30am 5.4 4.1 4.2 92 0.5 CALM 0 0 0 0 1020.1 1020.1 0.0
18/05:00am 6.1 5.0 5.1 93 0.4 CALM 0 0 0 0 1020.1 1020.1 0.0
18/04:30am 6.2 5.2 5.5 95 0.3 CALM 0 0 0 0 1019.8 1019.8 0.0
18/04:00am 6.2 5.1 5.2 93 0.4 CALM 0 0 0 0 1019.7 1019.7 0.0
18/03:30am 6.3 5.3 5.4 94 0.4 CALM 0 0 0 0 1019.8 1019.8 0.0
18/03:00am 6.8 5.9 5.9 94 0.4 CALM 0 0 0 0 1020.1 1020.1 0.0
18/02:30am 7.3 6.5 6.4 94 0.4 CALM 0 0 0 0 1020.4 1020.4 0.0
18/02:28am 7.2 6.3 6.1 93 0.5 CALM 0 0 0 0 1020.4 1020.4 0.0
18/02:18am 7.2 6.3 6.0 92 0.5 CALM 0 0 0 0 1020.5 1020.5 0.0
18/02:00am 7.4 6.5 6.2 92 0.5 CALM 0 0 0 0 1020.7 1020.7 0.0
18/01:30am 7.4 6.5 5.9 90 0.7 CALM 0 0 0 0 1020.9 1020.9 0.0
18/01:00am 8.0 7.1 6.1 88 0.9 CALM 0 0 0 0 1021.1 1021.1 0.0
18/12:30am 8.4 7.5 6.2 86 1.0 CALM 0 0 0 0 1021.6 1021.6 0.0
18/12:00am 8.9 8.1 6.5 85 1.1 CALM 0 0 0 0 1021.7 1021.7 0.0
 
Date/Time
EST
Temp
°C
App
Temp
°C
Dew
Point
°C
Rel
Hum
%
Delta-T
°C
Wind Press
QNH
hPa
Press
MSL
hPa
Rain since
9am
mm
Dir  Spd
km/h
Gust
km/h
Spd
kts
Gust
kts
17/11:30pm 9.2 8.4 6.3 82 1.3 CALM 0 0 0 0 1021.9 1021.9 0.0
17/11:00pm 9.8 8.9 6.2 78 1.7 CALM 0 0 0 0 1022.0 1022.0 0.0
17/10:30pm 10.4 9.5 6.2 75 2.0 CALM 0 0 0 0 1021.9 1021.9 0.0
17/10:00pm 12.1 11.5 7.2 72 2.3 CALM 0 0 0 0 1022.0 1022.0 0.0
17/09:30pm 11.8 11.0 6.3 69 2.6 CALM 0 0 0 0 1022.2 1022.2 0.0
17/09:00pm 12.8 10.9 6.6 66 2.9 N 6 9 3 5 1022.3 1022.3 0.0
17/08:30pm 14.1 11.7 7.2 63 3.4 N 9 15 5 8 1022.1 1022.1 0.0
17/08:00pm 14.4 11.1 6.3 58 3.9 NE 13 20 7 11 1021.7 1021.7 0.0
17/07:30pm 14.6 11.0 5.1 53 4.5 NE 13 20 7 11 1021.6 1021.6 0.0
17/07:00pm 14.9 10.5 4.9 51 4.7 NE 17 26 9 14 1021.4 1021.4 0.0
17/06:30pm 15.1 10.7 4.8 50 4.8 NE 17 26 9 14 1021.2 1021.2 0.0
17/06:00pm 15.5 10.7 4.8 49 5.0 NE 19 32 10 17 1021.0 1021.0 0.0
17/05:30pm 16.0 11.1 5.0 48 5.2 ENE 20 32 11 17 1020.9 1020.9 0.0
17/05:00pm 16.5 11.3 5.5 48 5.3 NE 22 32 12 17 1020.8 1020.8 0.0
17/04:30pm 17.0 11.9 5.9 48 5.4 E 22 35 12 19 1020.7 1020.7 0.0
17/04:00pm 17.3 12.2 5.9 47 5.5 E 22 32 12 17 1020.8 1020.8 0.0
17/03:30pm 17.7 12.9 5.6 45 5.9 E 20 35 11 19 1020.9 1020.9 0.0
17/03:00pm 17.6 12.9 5.2 44 5.9 E 19 24 10 13 1021.2 1021.2 0.0
17/02:30pm 17.6 12.8 4.9 43 6.1 ENE 19 24 10 13 1021.5 1021.5 0.0
17/02:00pm 18.4 14.7 4.2 39 6.7 ENE 13 20 7 11 1021.7 1021.7 0.0
17/01:30pm 17.6 13.8 3.9 40 6.4 NE 13 28 7 15 1021.8 1021.8 0.0
17/01:00pm 17.5 14.2 2.7 37 6.7 N 9 24 5 13 1022.3 1022.3 0.0
17/12:30pm 17.1 12.6 1.9 36 6.8 NE 15 28 8 15 1023.0 1023.0 0.0
17/12:00pm 17.7 14.1 3.2 38 6.7 NW 11 24 6 13 1023.6 1023.6 0.0
17/11:30am 17.3 13.2 2.1 36 6.8 ENE 13 19 7 10 1024.1 1024.1 0.0
17/11:00am 16.6 12.6 2.6 39 6.3 N 13 22 7 12 1024.8 1024.8 0.0
17/10:30am 16.0 13.2 3.1 42 5.9 ENE 7 15 4 8 1025.0 1025.0 0.0
17/10:00am 15.9 13.4 4.9 48 5.2 NNW 7 9 4 5 1025.3 1025.3 0.0
17/09:30am 14.4 11.7 3.5 48 4.9 WSW 7 15 4 8 1025.7 1025.7 0.0
17/09:00am 13.3 9.8 3.4 51 4.4 WNW 11 15 6 8 1025.9 1025.9 0.0
17/08:30am 11.5 7.9 3.0 56 3.7 NW 11 13 6 7 1026.0 1026.0 0.0
17/08:00am 10.7 7.9 3.3 60 3.2 W 7 11 4 6 1025.7 1025.7 0.0
17/07:30am 9.1 6.3 3.1 66 2.6 WNW 7 9 4 5 1025.6 1025.6 0.0
17/07:00am 7.4 4.7 3.5 76 1.6 NNW 7 9 4 5 1025.2 1025.2 0.0
17/06:30am 5.7 2.4 2.4 79 1.3 N 9 11 5 6 1025.0 1025.0 0.0
17/06:00am 4.9 2.0 1.4 78 1.4 NNW 6 9 3 5 1024.8 1024.8 0.0
17/05:30am 5.7 4.0 1.8 76 1.6 CALM 0 0 0 0 1024.4 1024.4 0.0
17/05:00am 5.6 3.5 1.7 76 1.5 WSW 2 6 1 3 1024.2 1024.2 0.0
17/04:30am 5.7 2.8 1.4 74 1.7 WSW 6 9 3 5 1024.0 1024.0 0.0
17/04:00am 5.6 2.7 1.3 74 1.7 W 6 7 3 4 1023.8 1023.8 0.0
17/03:30am 5.9 3.0 1.6 74 1.7 W 6 9 3 5 1023.6 1023.6 0.0
17/03:00am 6.2 2.7 1.5 72 1.9 WSW 9 11 5 6 1023.5 1023.5 0.0
17/02:30am 6.7 5.0 2.0 72 1.9 CALM 0 0 0 0 1023.5 1023.5 0.0
17/02:00am 6.7 5.0 1.8 71 2.0 CALM 0 0 0 0 1023.8 1023.8 0.0
17/01:30am 6.9 5.2 1.6 69 2.1 CALM 0 0 0 0 1023.9 1023.9 0.0
17/01:00am 7.0 5.3 1.7 69 2.1 CALM 0 0 0 0 1024.1 1024.1 0.0
17/12:30am 7.5 5.8 2.0 68 2.3 CALM 0 6 0 3 1024.1 1024.1 0.0
17/12:00am 7.9 6.3 2.2 67 2.3 CALM 0 0 0 0 1024.1 1024.1 0.0
 
Date/Time
EST
Temp
°C
App
Temp
°C
Dew
Point
°C
Rel
Hum
%
Delta-T
°C
Wind Press
QNH
hPa
Press
MSL
hPa
Rain since
9am
mm
Dir  Spd
km/h
Gust
km/h
Spd
kts
Gust
kts
16/11:30pm 7.8 6.1 1.9 66 2.4 CALM 0 0 0 0 1024.0 1024.0 0.0
16/11:00pm 7.5 5.8 1.6 66 2.4 CALM 0 0 0 0 1024.2 1024.2 0.0
16/10:30pm 8.7 7.0 1.8 62 2.9 CALM 0 0 0 0 1024.1 1024.1 0.0
16/10:00pm 8.9 7.3 2.5 64 2.7 CALM 0 0 0 0 1024.0 1024.0 0.0
16/09:30pm 8.7 7.1 2.7 66 2.5 CALM 0 0 0 0 1023.8 1023.8 0.0
16/09:00pm 10.3 8.8 2.9 60 3.2 CALM 0 0 0 0 1023.4 1023.4 0.0

Other Formats:

Comma delimited format used in spreadsheet applications
http://www.bom.gov.au/fwo/IDN60801/IDN60801.94765.axf

JavaScript Object Notation format (JSON) in row-major order
http://www.bom.gov.au/fwo/IDN60801/IDN60801.94765.json